createdAt,value
2023-02-07T00:01:10.691Z,11.63
2023-02-07T00:03:40.256Z,13.07
2023-02-07T00:06:08.553Z,10.47
2023-02-07T00:08:36.357Z,11.60
2023-02-07T00:11:08.122Z,11.37
2023-02-07T00:13:36.517Z,10.60
2023-02-07T00:16:04.591Z,10.73
2023-02-07T00:18:33.184Z,9.10
2023-02-07T00:21:03.439Z,10.53
2023-02-07T00:23:31.380Z,10.30
2023-02-07T00:25:58.970Z,9.20
2023-02-07T00:28:27.326Z,9.00
2023-02-07T00:31:04.227Z,9.37
2023-02-07T00:33:32.163Z,10.43
2023-02-07T00:36:00.173Z,8.53
2023-02-07T00:38:29.859Z,9.80
2023-02-07T00:40:57.748Z,8.47
2023-02-07T00:43:29.886Z,8.70
2023-02-07T00:45:59.493Z,7.50
2023-02-07T00:48:27.802Z,8.27
2023-02-07T00:50:55.908Z,8.77
2023-02-07T00:53:23.989Z,9.10
2023-02-07T00:55:53.381Z,9.43
2023-02-07T00:58:21.440Z,9.07
2023-02-07T01:00:49.322Z,7.77
2023-02-07T01:03:17.328Z,10.67
2023-02-07T01:05:45.169Z,10.07
2023-02-07T01:08:13.234Z,9.67
2023-02-07T01:10:42.100Z,8.13
2023-02-07T01:13:13.780Z,8.93
2023-02-07T01:15:44.118Z,9.20
2023-02-07T01:18:12.844Z,7.83
2023-02-07T01:20:40.863Z,8.87
2023-02-07T01:23:08.594Z,9.27
2023-02-07T01:25:36.734Z,9.83
2023-02-07T01:28:05.057Z,10.10
2023-02-07T01:30:34.459Z,10.07
2023-02-07T01:33:02.395Z,10.20
2023-02-07T01:35:30.255Z,10.57
2023-02-07T01:37:58.456Z,9.70
2023-02-07T01:40:26.966Z,9.30
2023-02-07T01:42:54.554Z,9.27
2023-02-07T01:45:29.195Z,10.67
2023-02-07T01:48:01.777Z,10.30
2023-02-07T01:50:30.012Z,9.23
2023-02-07T01:52:59.643Z,9.20
2023-02-07T01:55:32.407Z,7.63
2023-02-07T01:58:01.643Z,9.33
2023-02-07T02:00:30.362Z,8.43
2023-02-07T02:02:59.471Z,9.37
2023-02-07T02:05:28.208Z,10.93
2023-02-07T02:07:55.930Z,9.73
2023-02-07T02:10:30.423Z,11.53
2023-02-07T02:13:12.882Z,9.33
2023-02-07T02:15:47.765Z,10.50
2023-02-07T02:18:35.064Z,8.10
2023-02-07T02:21:48.835Z,7.90
2023-02-07T02:24:41.836Z,9.30
2023-02-07T02:27:17.609Z,9.83
2023-02-07T02:30:34.469Z,9.07
2023-02-07T02:33:21.207Z,9.70
2023-02-07T02:35:58.487Z,8.00
2023-02-07T02:38:32.762Z,8.40
2023-02-07T02:41:07.100Z,13.47
2023-02-07T02:43:43.391Z,13.43
2023-02-07T02:46:16.898Z,11.80
2023-02-07T02:48:46.688Z,11.70
2023-02-07T02:51:14.876Z,10.00
2023-02-07T02:53:52.963Z,10.40
2023-02-07T02:56:46.704Z,8.60
2023-02-07T02:59:44.097Z,11.63
2023-02-07T03:02:23.181Z,14.13
2023-02-07T03:05:13.798Z,13.57
2023-02-07T03:07:49.563Z,15.90
2023-02-07T03:10:30.822Z,12.77
2023-02-07T03:13:03.355Z,13.00
2023-02-07T03:15:38.642Z,8.33
2023-02-07T03:18:11.872Z,10.47
2023-02-07T03:20:46.888Z,14.37
2023-02-07T03:23:17.453Z,13.43
2023-02-07T03:25:46.111Z,14.53
2023-02-07T03:28:17.665Z,12.93
2023-02-07T03:30:48.819Z,11.47
2023-02-07T03:33:18.090Z,12.80
2023-02-07T03:35:52.036Z,12.20
2023-02-07T03:38:20.110Z,12.20
2023-02-07T03:40:50.249Z,10.50
2023-02-07T03:43:22.437Z,10.53
2023-02-07T03:45:50.028Z,11.17
2023-02-07T03:48:17.677Z,11.13
2023-02-07T03:50:45.266Z,10.77
2023-02-07T03:53:14.207Z,9.80
2023-02-07T03:55:41.809Z,9.90
2023-02-07T03:58:09.688Z,11.13
2023-02-07T04:00:37.726Z,12.47
2023-02-07T04:03:06.383Z,10.63
2023-02-07T04:05:34.099Z,11.57
2023-02-07T04:08:01.871Z,9.10
2023-02-07T04:10:30.794Z,8.80
2023-02-07T04:12:58.395Z,9.47
2023-02-07T04:15:26.340Z,10.30
2023-02-07T04:17:53.979Z,10.53
2023-02-07T04:20:21.743Z,10.10
2023-02-07T04:22:49.333Z,9.77
2023-02-07T04:25:17.108Z,10.60
2023-02-07T04:27:46.187Z,9.47
2023-02-07T04:30:14.011Z,10.77
2023-02-07T04:32:41.580Z,12.87
2023-02-07T04:35:09.852Z,11.13
2023-02-07T04:37:37.458Z,12.60
2023-02-07T04:40:05.741Z,11.83
2023-02-07T04:42:33.342Z,10.67
2023-02-07T04:45:02.339Z,11.67
2023-02-07T04:47:29.916Z,10.63
2023-02-07T04:49:57.531Z,11.13
2023-02-07T04:52:25.333Z,10.90
2023-02-07T04:54:52.921Z,9.60
2023-02-07T04:57:20.488Z,11.37
2023-02-07T04:59:48.078Z,8.87
2023-02-07T05:02:17.000Z,8.93
2023-02-07T05:04:44.730Z,8.60
2023-02-07T05:07:12.332Z,9.87
2023-02-07T05:09:39.949Z,9.00
2023-02-07T05:12:08.567Z,7.73
2023-02-07T05:14:36.189Z,9.20
2023-02-07T05:17:03.765Z,8.67
2023-02-07T05:19:33.837Z,6.73
2023-02-07T05:22:01.529Z,8.87
2023-02-07T05:24:29.185Z,11.87
2023-02-07T05:26:56.811Z,12.00
2023-02-07T05:29:24.510Z,8.63
2023-02-07T05:32:09.831Z,10.93
2023-02-07T05:34:38.799Z,9.70
2023-02-07T05:37:06.411Z,9.57
2023-02-07T05:39:34.058Z,13.37
2023-02-07T05:42:01.633Z,13.70
2023-02-07T05:44:29.304Z,18.90
2023-02-07T05:46:56.899Z,19.27
2023-02-07T05:49:24.492Z,16.70
2023-02-07T05:51:53.418Z,18.30
2023-02-07T05:54:21.017Z,17.90
2023-02-07T05:56:48.586Z,18.87
2023-02-07T05:59:16.231Z,20.17
2023-02-07T06:01:43.981Z,19.80
2023-02-07T06:04:11.665Z,19.27
2023-02-07T06:06:39.244Z,20.13
2023-02-07T06:09:08.181Z,17.33
2023-02-07T06:11:35.770Z,19.23
2023-02-07T06:14:03.384Z,16.90
2023-02-07T06:16:30.995Z,19.90
2023-02-07T06:18:58.578Z,20.00
2023-02-07T06:21:34.661Z,21.93
2023-02-07T06:24:10.147Z,22.77
2023-02-07T06:26:38.032Z,20.73
2023-02-07T06:29:05.647Z,19.67
2023-02-07T06:31:33.245Z,19.80
2023-02-07T06:34:00.919Z,19.87
2023-02-07T06:36:28.497Z,19.43
2023-02-07T06:38:56.102Z,21.30
2023-02-07T06:41:25.039Z,20.17
2023-02-07T06:43:52.623Z,20.10
2023-02-07T06:46:20.206Z,17.77
2023-02-07T06:48:47.885Z,19.07
2023-02-07T06:51:15.853Z,24.53
2023-02-07T06:53:43.477Z,20.13
2023-02-07T06:56:11.114Z,20.77
2023-02-07T06:58:40.091Z,19.60
2023-02-07T07:01:07.893Z,19.20
2023-02-07T07:03:35.708Z,20.17
2023-02-07T07:06:03.277Z,22.40
2023-02-07T07:08:30.918Z,23.00
2023-02-07T07:10:58.517Z,21.73
2023-02-07T07:13:26.175Z,22.87
2023-02-07T07:15:55.309Z,22.40
2023-02-07T07:18:22.926Z,20.87
2023-02-07T07:20:54.097Z,17.73
2023-02-07T07:23:21.721Z,19.40
2023-02-07T07:25:49.339Z,19.37
2023-02-07T07:28:16.931Z,18.17
2023-02-07T07:30:44.565Z,16.33
2023-02-07T07:33:13.541Z,17.67
2023-02-07T07:35:41.457Z,15.63
2023-02-07T07:38:09.366Z,18.10
2023-02-07T07:40:37.335Z,16.70
2023-02-07T07:43:05.744Z,17.13
2023-02-07T07:45:47.153Z,17.13
2023-02-07T07:48:16.135Z,15.83
2023-02-07T07:50:44.027Z,17.10
2023-02-07T07:53:11.607Z,15.20
2023-02-07T07:55:39.381Z,18.03
2023-02-07T07:58:06.957Z,15.57
2023-02-07T08:00:35.001Z,17.17
2023-02-07T08:03:02.661Z,21.93
2023-02-07T08:05:31.621Z,20.43
2023-02-07T08:07:59.196Z,21.90
2023-02-07T08:10:26.823Z,22.23
2023-02-07T08:12:54.461Z,25.30
2023-02-07T08:15:22.043Z,21.93
2023-02-07T08:17:49.606Z,22.30
2023-02-07T08:20:17.715Z,20.63
2023-02-07T08:22:46.670Z,21.77
2023-02-07T08:25:14.314Z,24.23
2023-02-07T08:27:41.928Z,22.83
2023-02-07T08:30:12.337Z,27.67
2023-02-07T08:32:41.682Z,23.47
2023-02-07T08:35:09.835Z,23.53
2023-02-07T08:37:38.719Z,21.20
2023-02-07T08:40:08.655Z,22.63
2023-02-07T08:42:36.275Z,21.93
2023-02-07T08:45:05.639Z,25.87
2023-02-07T08:47:33.617Z,20.47
2023-02-07T08:50:01.316Z,19.87
2023-02-07T08:52:29.857Z,21.83
2023-02-07T08:54:57.653Z,21.57
2023-02-07T08:57:27.570Z,21.70
2023-02-07T08:59:55.449Z,23.77
2023-02-07T09:02:23.203Z,21.27
2023-02-07T09:04:51.706Z,22.30
2023-02-07T09:07:20.659Z,21.57
2023-02-07T09:09:48.298Z,27.10
2023-02-07T09:12:16.163Z,23.87
2023-02-07T09:14:45.262Z,23.03
2023-02-07T09:17:12.986Z,21.23
2023-02-07T09:19:40.790Z,21.70
2023-02-07T09:22:08.484Z,22.73
2023-02-07T09:24:36.354Z,24.23
2023-02-07T09:27:04.074Z,25.27
2023-02-07T09:29:31.734Z,24.07
2023-02-07T09:32:00.841Z,25.07
2023-02-07T09:34:28.656Z,23.53
2023-02-07T09:36:56.442Z,23.17
2023-02-07T09:39:24.043Z,26.77
2023-02-07T09:42:03.492Z,28.10
2023-02-07T09:44:48.353Z,29.00
2023-02-07T09:47:21.123Z,23.83
2023-02-07T09:49:52.321Z,24.93
2023-02-07T09:52:23.678Z,25.00
2023-02-07T09:54:53.892Z,23.00
2023-02-07T09:57:26.391Z,24.70
2023-02-07T09:59:59.353Z,25.07
2023-02-07T10:02:33.343Z,25.37
2023-02-07T10:05:05.580Z,22.77
2023-02-07T10:07:33.561Z,23.33
2023-02-07T10:10:01.493Z,20.37
2023-02-07T10:12:59.304Z,21.13
2023-02-07T10:15:47.025Z,27.53
2023-02-07T10:18:39.100Z,23.60
2023-02-07T10:21:15.020Z,25.23
2023-02-07T10:23:55.418Z,26.43
2023-02-07T10:26:28.643Z,24.93
2023-02-07T10:29:09.766Z,25.77
2023-02-07T10:31:40.464Z,24.77
2023-02-07T10:34:16.338Z,24.80
2023-02-07T10:36:48.071Z,24.77
2023-02-07T10:39:22.663Z,29.47
2023-02-07T10:41:52.158Z,25.97
2023-02-07T10:44:21.046Z,23.70
2023-02-07T10:46:54.911Z,27.20
2023-02-07T10:49:26.881Z,32.10
2023-02-07T10:51:57.879Z,29.17
2023-02-07T10:54:25.879Z,30.53
2023-02-07T10:57:01.482Z,32.27
2023-02-07T10:59:38.624Z,37.67
2023-02-07T11:02:37.521Z,31.03
2023-02-07T11:05:28.037Z,32.87
2023-02-07T11:08:01.228Z,38.20
2023-02-07T11:10:33.659Z,37.93
2023-02-07T11:13:02.501Z,39.37
2023-02-07T11:15:39.115Z,40.03
2023-02-07T11:18:07.637Z,39.23
2023-02-07T11:20:40.153Z,33.97
2023-02-07T11:23:14.763Z,31.97
2023-02-07T11:25:44.603Z,29.57
2023-02-07T11:28:20.091Z,26.13
2023-02-07T11:30:52.748Z,27.83
2023-02-07T11:33:23.608Z,28.20
2023-02-07T11:36:25.448Z,29.57
2023-02-07T11:38:56.462Z,32.03
2023-02-07T11:41:27.535Z,29.50
2023-02-07T11:43:59.263Z,28.13
2023-02-07T11:46:37.480Z,26.10
2023-02-07T11:49:09.181Z,37.03
2023-02-07T11:51:38.240Z,36.63
2023-02-07T11:54:08.327Z,31.57
2023-02-07T11:56:40.813Z,30.77
2023-02-07T11:59:15.326Z,36.27
2023-02-07T12:01:45.657Z,30.30
2023-02-07T12:04:17.147Z,34.10
2023-02-07T12:06:51.045Z,30.17
2023-02-07T12:09:29.282Z,31.87
2023-02-07T12:11:59.288Z,37.60
2023-02-07T12:14:36.771Z,36.20
2023-02-07T12:17:10.721Z,34.90
2023-02-07T12:19:52.681Z,38.33
2023-02-07T12:22:26.253Z,40.77
2023-02-07T12:24:57.710Z,34.33
2023-02-07T12:27:31.236Z,32.07
2023-02-07T12:30:04.885Z,27.20
2023-02-07T12:32:43.834Z,29.47
2023-02-07T12:35:18.288Z,25.27
2023-02-07T12:37:53.784Z,26.93
2023-02-07T12:40:29.784Z,33.50
2023-02-07T12:43:02.832Z,37.17
2023-02-07T12:45:51.457Z,36.03
2023-02-07T12:48:32.195Z,39.30
2023-02-07T12:51:11.393Z,47.53
2023-02-07T12:53:53.513Z,41.97
2023-02-07T12:56:37.715Z,40.70
2023-02-07T12:59:15.399Z,39.87
2023-02-07T13:01:47.468Z,41.13
2023-02-07T13:04:44.870Z,36.50
2023-02-07T13:07:26.382Z,39.87
2023-02-07T13:10:04.920Z,37.90
2023-02-07T13:12:42.900Z,37.20
2023-02-07T13:15:23.237Z,36.50
2023-02-07T13:18:01.074Z,36.47
2023-02-07T13:20:44.336Z,38.90
2023-02-07T13:23:19.146Z,41.40
2023-02-07T13:25:53.154Z,43.80
2023-02-07T13:28:24.684Z,42.50
2023-02-07T13:30:53.555Z,41.63
2023-02-07T13:33:33.822Z,42.90
2023-02-07T13:36:10.965Z,40.33
2023-02-07T13:38:50.969Z,44.67
2023-02-07T13:41:30.266Z,46.63
2023-02-07T13:44:10.188Z,46.70
2023-02-07T13:46:59.223Z,44.60
2023-02-07T13:49:39.791Z,42.63
2023-02-07T13:52:12.679Z,45.90
2023-02-07T13:54:49.597Z,42.30
2023-02-07T13:57:56.148Z,45.30
2023-02-07T14:00:26.293Z,44.57
2023-02-07T14:02:56.082Z,47.17
2023-02-07T14:05:26.980Z,46.77
2023-02-07T14:08:02.127Z,42.90
2023-02-07T14:10:41.790Z,41.03
2023-02-07T14:13:29.896Z,42.80
2023-02-07T14:16:02.888Z,46.17
2023-02-07T14:18:48.378Z,44.63
2023-02-07T14:21:38.655Z,43.97
2023-02-07T14:24:35.192Z,44.20
2023-02-07T14:27:26.458Z,47.37
2023-02-07T14:29:57.677Z,45.00
2023-02-07T14:32:44.906Z,44.97
2023-02-07T14:35:33.348Z,42.83
2023-02-07T14:38:13.757Z,45.53
2023-02-07T14:41:09.537Z,40.73
2023-02-07T14:43:56.753Z,44.63
2023-02-07T14:46:37.882Z,44.03
2023-02-07T14:49:12.560Z,44.20
2023-02-07T14:51:43.795Z,47.37
2023-02-07T14:54:18.772Z,41.93
2023-02-07T14:56:52.279Z,44.70
2023-02-07T14:59:28.601Z,41.90
2023-02-07T15:01:57.600Z,42.77
2023-02-07T15:04:25.230Z,40.23
2023-02-07T15:06:52.935Z,41.63
2023-02-07T15:09:25.647Z,38.80
2023-02-07T15:12:04.137Z,37.80
2023-02-07T15:14:36.780Z,39.83
2023-02-07T15:17:06.309Z,38.60
2023-02-07T15:19:37.030Z,47.67
2023-02-07T15:22:20.449Z,40.37
2023-02-07T15:24:56.205Z,42.30
2023-02-07T15:27:26.084Z,38.43
2023-02-07T15:29:58.177Z,37.70
2023-02-07T15:32:30.096Z,39.70
2023-02-07T15:34:57.856Z,38.87
2023-02-07T15:37:27.652Z,35.30
2023-02-07T15:39:56.672Z,33.47
2023-02-07T15:42:24.820Z,32.00
2023-02-07T15:44:54.651Z,33.43
2023-02-07T15:47:36.696Z,33.13
2023-02-07T15:50:09.030Z,32.30
2023-02-07T15:52:41.128Z,32.77
2023-02-07T15:55:18.423Z,31.13
2023-02-07T15:57:47.396Z,27.20
2023-02-07T16:00:18.695Z,26.63
2023-02-07T16:02:56.864Z,22.63
2023-02-07T16:05:28.362Z,21.70
2023-02-07T16:07:57.021Z,19.57
2023-02-07T16:10:36.970Z,21.10
2023-02-07T16:13:18.897Z,19.77
2023-02-07T16:15:56.250Z,16.97
2023-02-07T16:18:40.133Z,16.13
2023-02-07T16:21:16.983Z,16.67
2023-02-07T16:23:45.729Z,19.33
2023-02-07T16:26:13.975Z,20.47
2023-02-07T16:28:41.875Z,20.03
2023-02-07T16:31:09.609Z,20.43
2023-02-07T16:33:39.948Z,19.40
2023-02-07T16:36:13.848Z,20.70
2023-02-07T16:38:41.422Z,20.00
2023-02-07T16:41:22.705Z,18.30
2023-02-07T16:43:50.358Z,19.20
2023-02-07T16:46:18.007Z,18.67
2023-02-07T16:48:47.056Z,16.83
2023-02-07T16:51:16.836Z,27.87
2023-02-07T16:53:44.676Z,30.77
2023-02-07T16:56:14.172Z,29.33
2023-02-07T16:58:42.270Z,27.70
2023-02-07T17:01:16.406Z,28.93
2023-02-07T17:03:44.025Z,26.40
2023-02-07T17:06:14.798Z,25.73
2023-02-07T17:08:42.949Z,23.23
2023-02-07T17:11:15.444Z,24.40
2023-02-07T17:13:43.108Z,22.73
2023-02-07T17:16:13.383Z,24.57
2023-02-07T17:18:41.400Z,27.70
2023-02-07T17:21:11.562Z,24.23
2023-02-07T17:23:40.529Z,28.33
2023-02-07T17:26:14.856Z,25.50
2023-02-07T17:28:42.459Z,25.47
2023-02-07T17:31:11.813Z,28.00
2023-02-07T17:33:39.700Z,26.17
2023-02-07T17:36:08.001Z,31.37
2023-02-07T17:38:35.578Z,30.17
2023-02-07T17:41:05.317Z,32.87
2023-02-07T17:43:33.432Z,33.93
2023-02-07T17:46:01.399Z,31.30
2023-02-07T17:48:30.349Z,30.03
2023-02-07T17:50:58.117Z,25.90
2023-02-07T17:53:25.762Z,25.17
2023-02-07T17:55:53.623Z,23.83
2023-02-07T17:58:22.557Z,22.37
2023-02-07T18:00:50.458Z,22.87
2023-02-07T18:03:18.291Z,23.60
2023-02-07T18:05:45.944Z,26.50
2023-02-07T18:08:15.071Z,25.63
2023-02-07T18:10:42.809Z,29.53
2023-02-07T18:13:10.432Z,26.67
2023-02-07T18:15:39.481Z,24.53
2023-02-07T18:18:07.472Z,23.10
2023-02-07T18:20:35.575Z,26.77
2023-02-07T18:23:03.196Z,29.00
2023-02-07T18:25:31.842Z,30.87
2023-02-07T18:28:01.438Z,35.47
2023-02-07T18:30:30.128Z,38.57
2023-02-07T18:32:59.372Z,36.27
2023-02-07T18:35:26.971Z,36.10
2023-02-07T18:37:54.574Z,37.00
2023-02-07T18:40:22.644Z,33.67
2023-02-07T18:42:50.702Z,35.60
2023-02-07T18:45:18.337Z,40.97
2023-02-07T18:47:46.098Z,39.77
2023-02-07T18:50:15.018Z,37.43
2023-02-07T18:52:42.723Z,40.63
2023-02-07T18:55:10.371Z,40.60
2023-02-07T18:57:38.029Z,39.27
2023-02-07T19:00:07.035Z,39.87
2023-02-07T19:02:34.736Z,43.33
2023-02-07T19:05:02.713Z,44.33
2023-02-07T19:07:32.284Z,40.30
2023-02-07T19:09:59.893Z,35.93
2023-02-07T19:12:27.570Z,43.97
2023-02-07T19:14:55.163Z,48.30
2023-02-07T19:17:25.058Z,46.40
2023-02-07T19:19:53.165Z,47.87
2023-02-07T19:22:30.112Z,41.27
2023-02-07T19:25:02.860Z,48.53
2023-02-07T19:27:30.598Z,56.43
2023-02-07T19:29:58.265Z,64.67
2023-02-07T19:32:25.851Z,60.80
2023-02-07T19:34:53.548Z,63.53
2023-02-07T19:37:22.413Z,64.50
2023-02-07T19:39:50.033Z,62.33
2023-02-07T19:42:18.929Z,58.90
2023-02-07T19:44:46.654Z,68.10
2023-02-07T19:47:14.267Z,65.13
2023-02-07T19:49:42.186Z,74.43
2023-02-07T19:52:09.902Z,74.10
2023-02-07T19:54:37.638Z,79.10
2023-02-07T19:57:05.272Z,70.50
2023-02-07T19:59:34.274Z,80.30
2023-02-07T20:02:02.014Z,85.40
2023-02-07T20:04:29.709Z,82.57
2023-02-07T20:06:57.328Z,77.10
2023-02-07T20:09:24.986Z,84.00
2023-02-07T20:11:54.905Z,82.67
2023-02-07T20:14:22.716Z,77.40
2023-02-07T20:16:51.750Z,76.60
2023-02-07T20:19:19.860Z,69.00
2023-02-07T20:21:48.007Z,82.27
2023-02-07T20:24:15.602Z,64.43
2023-02-07T20:26:44.509Z,62.43
2023-02-07T20:29:14.761Z,61.00
2023-02-07T20:31:43.916Z,74.17
2023-02-07T20:34:15.081Z,77.57
2023-02-07T20:36:43.760Z,74.80
2023-02-07T20:39:14.294Z,75.43
2023-02-07T20:41:43.177Z,74.40
2023-02-07T20:44:15.205Z,73.57
2023-02-07T20:46:46.337Z,71.20
2023-02-07T20:49:17.341Z,65.37
2023-02-07T20:51:45.738Z,74.87
2023-02-07T20:54:13.879Z,77.37
2023-02-07T20:56:42.253Z,72.90
2023-02-07T20:59:14.185Z,70.50
2023-02-07T21:01:41.814Z,69.30
2023-02-07T21:04:09.519Z,70.80
2023-02-07T21:06:38.579Z,73.00
2023-02-07T21:09:08.556Z,66.40
2023-02-07T21:11:39.161Z,74.70
2023-02-07T21:14:09.450Z,68.27
2023-02-07T21:16:37.444Z,72.83
2023-02-07T21:19:05.585Z,69.43
2023-02-07T21:21:33.216Z,66.60
2023-02-07T21:24:02.226Z,66.13
2023-02-07T21:26:29.886Z,64.40
2023-02-07T21:28:58.650Z,67.07
2023-02-07T21:31:26.636Z,61.37
2023-02-07T21:33:54.633Z,57.93
2023-02-07T21:36:24.560Z,67.00
2023-02-07T21:38:53.827Z,68.50
2023-02-07T21:41:24.975Z,66.77
2023-02-07T21:43:54.655Z,73.87
2023-02-07T21:46:24.568Z,65.20
2023-02-07T21:48:54.815Z,68.67
2023-02-07T21:51:24.196Z,63.70
2023-02-07T21:53:53.195Z,74.83
2023-02-07T21:56:24.993Z,70.93
2023-02-07T21:58:54.586Z,73.90
2023-02-07T22:01:23.384Z,72.07
2023-02-07T22:03:53.794Z,77.17
2023-02-07T22:06:22.431Z,75.33
2023-02-07T22:08:51.654Z,79.00
2023-02-07T22:11:22.674Z,81.70
2023-02-07T22:13:52.385Z,80.87
2023-02-07T22:16:22.107Z,74.60
2023-02-07T22:18:51.908Z,72.43
2023-02-07T22:21:22.010Z,75.97
2023-02-07T22:23:54.585Z,75.70
2023-02-07T22:26:24.423Z,77.00
2023-02-07T22:28:52.202Z,79.10
2023-02-07T22:31:21.555Z,70.03
2023-02-07T22:33:49.938Z,73.00
2023-02-07T22:36:20.084Z,71.77
2023-02-07T22:38:48.412Z,67.83
2023-02-07T22:41:16.712Z,66.13
2023-02-07T22:43:46.053Z,68.20
2023-02-07T22:46:16.205Z,62.60
2023-02-07T22:48:44.165Z,66.70
2023-02-07T22:51:13.869Z,63.57
2023-02-07T22:53:42.400Z,62.37
2023-02-07T22:56:10.066Z,65.03
2023-02-07T22:58:38.495Z,69.37
2023-02-07T23:01:08.457Z,64.33
2023-02-07T23:03:37.245Z,68.93
2023-02-07T23:06:06.077Z,65.13
2023-02-07T23:08:33.883Z,63.43
2023-02-07T23:11:01.496Z,64.80
2023-02-07T23:13:29.128Z,72.13
2023-02-07T23:15:56.791Z,65.40
2023-02-07T23:18:25.866Z,59.67
2023-02-07T23:20:53.955Z,54.80
2023-02-07T23:23:22.596Z,55.40
2023-02-07T23:25:50.369Z,60.03
2023-02-07T23:28:17.995Z,63.47
2023-02-07T23:30:45.720Z,68.60
2023-02-07T23:33:13.436Z,59.33
2023-02-07T23:35:42.402Z,58.13
2023-02-07T23:38:10.002Z,64.00
2023-02-07T23:40:37.992Z,55.20
2023-02-07T23:43:05.759Z,52.73
2023-02-07T23:45:33.413Z,49.37
2023-02-07T23:48:02.336Z,55.60
2023-02-07T23:50:31.073Z,54.70
2023-02-07T23:53:00.500Z,56.07
2023-02-07T23:55:28.618Z,53.90
2023-02-07T23:57:56.258Z,45.30
